createdAt,value
2022-10-11T05:03:51.470Z,77.60
2022-10-11T05:06:53.101Z,77.40
2022-10-11T05:09:54.821Z,77.40
2022-10-11T05:12:56.670Z,77.50
2022-10-11T05:15:58.290Z,77.60
2022-10-11T05:18:59.923Z,77.60
2022-10-11T05:22:01.562Z,77.80
2022-10-11T05:25:03.687Z,77.60
2022-10-11T05:28:05.406Z,77.50
2022-10-11T05:31:07.087Z,77.20
2022-10-11T05:34:08.788Z,77.30
2022-10-11T05:37:10.401Z,77.50
2022-10-11T05:40:12.494Z,77.50
2022-10-11T05:43:14.831Z,77.50
2022-10-11T05:46:16.506Z,77.90
2022-10-11T05:49:18.138Z,78.10
2022-10-11T05:52:21.493Z,77.90
2022-10-11T05:55:23.156Z,78.20
2022-10-11T05:58:24.999Z,78.20
2022-10-11T06:01:27.204Z,78.30
2022-10-11T06:04:28.894Z,78.20
2022-10-11T06:07:30.587Z,78.20
2022-10-11T06:10:32.748Z,78.10
2022-10-11T06:13:35.739Z,78.10
2022-10-11T06:16:37.550Z,78.30
2022-10-11T06:19:39.175Z,78.40
2022-10-11T06:22:41.159Z,78.10
2022-10-11T06:25:42.914Z,78.00
2022-10-11T06:28:44.654Z,78.00
2022-10-11T06:31:47.581Z,77.90
2022-10-11T06:34:49.515Z,77.60
2022-10-11T06:37:51.398Z,77.60
2022-10-11T06:40:53.124Z,77.70
2022-10-11T06:43:55.210Z,77.60
2022-10-11T06:46:56.881Z,77.70
2022-10-11T06:49:58.805Z,77.70
2022-10-11T06:53:00.755Z,77.60
2022-10-11T06:56:07.177Z,77.70
2022-10-11T06:59:09.347Z,77.60
2022-10-11T07:02:11.022Z,77.50
2022-10-11T07:05:12.700Z,77.60
2022-10-11T07:08:14.306Z,77.50
2022-10-11T07:11:18.127Z,77.60
2022-10-11T07:14:19.852Z,77.80
2022-10-11T07:17:21.486Z,77.80
2022-10-11T07:20:23.554Z,77.80
2022-10-11T07:23:25.807Z,77.80
2022-10-11T07:26:28.052Z,77.80
2022-10-11T07:29:29.768Z,77.80
2022-10-11T07:32:31.625Z,77.70
2022-10-11T07:35:36.557Z,77.90
2022-10-11T07:38:41.952Z,77.90
2022-10-11T07:41:46.043Z,78.00
2022-10-11T07:44:48.268Z,78.10
2022-10-11T07:47:49.875Z,78.10
2022-10-11T07:50:51.542Z,78.10
2022-10-11T07:53:55.636Z,78.10
2022-10-11T07:56:57.304Z,78.00
2022-10-11T07:59:58.918Z,77.90
2022-10-11T08:03:04.896Z,77.80
2022-10-11T08:06:08.088Z,77.60
2022-10-11T08:09:10.410Z,77.50
2022-10-11T08:12:12.023Z,77.30
2022-10-11T08:15:14.035Z,77.20
2022-10-11T08:18:15.709Z,77.20
2022-10-11T08:21:17.993Z,77.10
2022-10-11T08:24:20.914Z,77.10
2022-10-11T08:27:22.707Z,76.90
2022-10-11T08:30:24.336Z,76.80
2022-10-11T08:33:26.477Z,76.70
2022-10-11T08:36:28.090Z,76.60
2022-10-11T08:39:29.906Z,76.50
2022-10-11T08:42:43.041Z,76.30
2022-10-11T08:45:49.303Z,76.20
2022-10-11T08:48:51.023Z,75.90
2022-10-11T08:52:00.196Z,75.70
2022-10-11T08:55:25.182Z,75.50
2022-10-11T08:59:00.990Z,75.30
2022-10-11T09:02:18.469Z,75.00
2022-10-11T09:05:20.632Z,74.70
2022-10-11T09:08:34.397Z,74.40
2022-10-11T09:11:39.081Z,74.20
2022-10-11T09:15:07.198Z,73.70
2022-10-11T09:18:50.077Z,73.40
2022-10-11T09:22:07.037Z,73.00
2022-10-11T09:25:25.279Z,72.60
2022-10-11T09:28:40.000Z,72.30
2022-10-11T09:31:45.230Z,71.90
2022-10-11T09:35:01.557Z,71.80
2022-10-11T09:38:19.056Z,71.70
2022-10-11T09:41:26.490Z,71.30
2022-10-11T09:44:39.178Z,70.80
2022-10-11T09:47:40.803Z,70.50
2022-10-11T09:50:42.462Z,70.40
2022-10-11T09:54:02.382Z,70.40
2022-10-11T09:57:04.042Z,70.20
2022-10-11T10:00:22.117Z,69.90
2022-10-11T10:03:31.781Z,69.70
2022-10-11T10:06:33.478Z,69.50
2022-10-11T10:09:35.114Z,69.30
2022-10-11T10:12:36.765Z,69.30
2022-10-11T10:15:38.538Z,69.10
2022-10-11T10:18:44.926Z,68.90
2022-10-11T10:21:48.311Z,68.70
2022-10-11T10:24:50.654Z,68.50
2022-10-11T10:28:03.450Z,68.30
2022-10-11T10:31:05.148Z,68.20
2022-10-11T10:34:34.810Z,68.00
2022-10-11T10:37:39.667Z,67.70
2022-10-11T10:40:53.522Z,67.50
2022-10-11T10:43:59.201Z,67.20
2022-10-11T10:47:28.583Z,67.00
2022-10-11T10:50:41.294Z,66.70
2022-10-11T10:53:45.561Z,66.60
2022-10-11T10:56:54.819Z,66.40
2022-10-11T11:00:11.267Z,66.20
2022-10-11T11:03:19.083Z,65.90
2022-10-11T11:06:50.873Z,65.80
2022-10-11T11:10:02.659Z,65.40
2022-10-11T11:13:23.101Z,65.10
2022-10-11T11:16:52.394Z,64.90
2022-10-11T11:20:16.608Z,64.70
2022-10-11T11:23:31.557Z,64.40
2022-10-11T11:26:52.957Z,64.10
2022-10-11T11:30:06.458Z,63.90
2022-10-11T11:33:38.837Z,63.60
2022-10-11T11:36:42.276Z,63.40
2022-10-11T11:39:52.402Z,63.00
2022-10-11T11:42:55.698Z,62.80
2022-10-11T11:45:58.359Z,62.50
2022-10-11T11:49:09.628Z,62.20
2022-10-11T11:52:35.224Z,62.00
2022-10-11T11:56:17.443Z,61.90
2022-10-11T11:59:35.108Z,61.60
2022-10-11T12:02:44.648Z,61.30
2022-10-11T12:06:14.484Z,61.20
2022-10-11T12:09:18.866Z,60.80
2022-10-11T12:12:37.026Z,60.60
2022-10-11T12:15:38.727Z,60.20
2022-10-11T12:19:02.166Z,60.00
2022-10-11T12:22:37.765Z,59.60
2022-10-11T12:25:40.459Z,59.30
2022-10-11T12:28:42.389Z,59.10
2022-10-11T12:32:11.295Z,58.80
2022-10-11T12:35:31.507Z,58.50
2022-10-11T12:38:38.422Z,58.00
2022-10-11T12:41:49.853Z,57.70
2022-10-11T12:45:13.379Z,57.40
2022-10-11T12:48:41.067Z,57.10
2022-10-11T12:51:51.213Z,56.90
2022-10-11T12:55:18.370Z,56.50
2022-10-11T12:58:24.494Z,56.10
2022-10-11T13:01:26.563Z,56.10
2022-10-11T13:04:30.016Z,55.70
2022-10-11T13:07:31.671Z,55.40
2022-10-11T13:10:37.334Z,55.20
2022-10-11T13:13:56.414Z,54.80
2022-10-11T13:17:04.943Z,54.80
2022-10-11T13:20:15.413Z,54.60
2022-10-11T13:23:24.427Z,53.90
2022-10-11T13:26:27.373Z,53.60
2022-10-11T13:29:33.777Z,53.70
2022-10-11T13:32:36.358Z,53.40
2022-10-11T13:35:38.462Z,53.20
2022-10-11T13:38:40.679Z,53.00
2022-10-11T13:41:42.406Z,52.80
2022-10-11T13:44:44.612Z,52.30
2022-10-11T13:47:47.141Z,52.50
2022-10-11T13:51:08.570Z,52.30
2022-10-11T13:54:13.801Z,52.40
2022-10-11T13:57:15.636Z,52.30
2022-10-11T14:00:17.450Z,52.00
2022-10-11T14:03:20.080Z,51.90
2022-10-11T14:06:21.742Z,51.60
2022-10-11T14:09:30.785Z,51.50
2022-10-11T14:12:43.131Z,51.30
2022-10-11T14:15:44.757Z,51.20
2022-10-11T14:19:03.330Z,51.00
2022-10-11T14:22:05.655Z,50.90
2022-10-11T14:25:07.639Z,50.70
2022-10-11T14:28:11.952Z,50.60
2022-10-11T14:31:13.619Z,50.10
2022-10-11T14:34:20.208Z,50.10
2022-10-11T14:37:22.156Z,50.00
2022-10-11T14:40:27.087Z,49.90
2022-10-11T14:43:28.876Z,49.80
2022-10-11T14:46:30.755Z,49.60
2022-10-11T14:49:36.682Z,49.00
2022-10-11T14:52:38.429Z,48.60
2022-10-11T14:55:40.782Z,48.30
2022-10-11T14:58:42.780Z,48.00
2022-10-11T15:01:46.603Z,47.50
2022-10-11T15:04:48.470Z,46.70
2022-10-11T15:07:50.191Z,46.50
2022-10-11T15:10:51.840Z,46.10
2022-10-11T15:13:53.668Z,45.70
2022-10-11T15:16:56.262Z,46.00
2022-10-11T15:19:58.004Z,46.10
2022-10-11T15:23:00.128Z,46.00
2022-10-11T15:26:01.823Z,45.40
2022-10-11T15:29:03.538Z,44.80
2022-10-11T15:32:05.333Z,44.60
2022-10-11T15:35:07.531Z,44.40
2022-10-11T15:38:15.702Z,44.00
2022-10-11T15:41:18.890Z,43.70
2022-10-11T15:44:20.564Z,43.70
2022-10-11T15:47:22.208Z,43.40
2022-10-11T15:50:36.722Z,43.20
2022-10-11T15:53:38.534Z,42.80
2022-10-11T15:56:40.407Z,42.50
2022-10-11T15:59:42.086Z,42.00
2022-10-11T16:02:44.946Z,41.70
2022-10-11T16:05:46.557Z,41.90
2022-10-11T16:08:48.180Z,42.50
2022-10-11T16:11:49.887Z,43.50
2022-10-11T16:14:51.813Z,44.40
2022-10-11T16:17:53.460Z,45.10
2022-10-11T16:20:55.154Z,45.60
2022-10-11T16:23:56.915Z,46.20
2022-10-11T16:26:58.537Z,46.30
2022-10-11T16:30:00.465Z,46.50
2022-10-11T16:33:02.321Z,47.20
2022-10-11T16:36:26.176Z,47.90
2022-10-11T16:39:27.802Z,48.50
2022-10-11T16:42:29.580Z,49.10
2022-10-11T16:45:31.389Z,49.70
2022-10-11T16:48:33.019Z,50.40
2022-10-11T16:51:34.741Z,50.90
2022-10-11T16:54:44.400Z,51.40
2022-10-11T16:57:46.031Z,51.80
2022-10-11T17:00:47.707Z,52.20
2022-10-11T17:03:50.027Z,52.60
2022-10-11T17:06:51.709Z,53.00
2022-10-11T17:09:53.319Z,53.40
2022-10-11T17:12:55.194Z,53.80
2022-10-11T17:15:56.814Z,54.40
2022-10-11T17:18:58.443Z,55.00
2022-10-11T17:22:00.110Z,55.50
2022-10-11T17:25:03.264Z,56.10
2022-10-11T17:28:04.882Z,56.60
2022-10-11T17:31:07.398Z,57.20
2022-10-11T17:34:13.307Z,57.60
2022-10-11T17:37:15.227Z,58.00
2022-10-11T17:40:16.986Z,58.40
2022-10-11T17:43:18.891Z,58.80
2022-10-11T17:46:22.279Z,59.10
2022-10-11T17:49:23.829Z,59.60
2022-10-11T17:52:25.667Z,60.00
2022-10-11T17:55:27.331Z,60.10
2022-10-11T17:58:28.949Z,60.50
2022-10-11T18:01:30.633Z,60.80
2022-10-11T18:04:32.355Z,61.10
2022-10-11T18:07:34.175Z,61.50
2022-10-11T18:10:38.890Z,61.80
2022-10-11T18:13:43.149Z,62.20
2022-10-11T18:16:44.814Z,62.70
2022-10-11T18:19:46.536Z,63.00
2022-10-11T18:22:49.665Z,63.40
2022-10-11T18:25:51.300Z,63.70
2022-10-11T18:28:53.596Z,63.80
2022-10-11T18:31:55.283Z,63.90
2022-10-11T18:34:59.584Z,64.10
2022-10-11T18:38:01.249Z,64.10
2022-10-11T18:41:08.090Z,64.30
2022-10-11T18:44:11.346Z,64.50
2022-10-11T18:47:13.107Z,64.60
2022-10-11T18:50:15.021Z,64.70
2022-10-11T18:53:16.766Z,64.70
2022-10-11T18:56:20.661Z,65.10
2022-10-11T18:59:22.323Z,65.20
2022-10-11T19:02:24.243Z,65.40
2022-10-11T19:05:26.177Z,65.50
2022-10-11T19:08:27.916Z,65.80
2022-10-11T19:11:29.607Z,66.20
2022-10-11T19:14:31.458Z,66.50
2022-10-11T19:17:33.695Z,66.50
2022-10-11T19:20:36.139Z,66.60
2022-10-11T19:23:39.497Z,66.70
2022-10-11T19:26:41.349Z,66.70
2022-10-11T19:29:42.990Z,66.80
2022-10-11T19:32:44.767Z,66.90
2022-10-11T19:35:56.040Z,67.00
2022-10-11T19:38:57.731Z,67.20
2022-10-11T19:42:00.317Z,67.30
2022-10-11T19:45:02.008Z,67.50
2022-10-11T19:48:03.762Z,67.60
2022-10-11T19:51:16.322Z,67.80
2022-10-11T19:54:18.519Z,68.20
2022-10-11T19:57:20.152Z,68.30
2022-10-11T20:00:21.847Z,68.50
2022-10-11T20:03:23.493Z,68.60
2022-10-11T20:06:26.151Z,68.90
2022-10-11T20:09:30.320Z,68.80
2022-10-11T20:12:33.447Z,68.90
2022-10-11T20:15:37.523Z,68.90
2022-10-11T20:18:39.200Z,68.80
2022-10-11T20:21:41.915Z,68.90
2022-10-11T20:24:43.728Z,69.00
2022-10-11T20:27:46.362Z,69.20
2022-10-11T20:30:48.002Z,69.40
2022-10-11T20:33:49.963Z,69.90
2022-10-11T20:36:52.193Z,70.20
2022-10-11T20:39:53.842Z,70.10
2022-10-11T20:42:55.521Z,70.00
2022-10-11T20:46:10.691Z,69.90
2022-10-11T20:49:12.477Z,70.10
2022-10-11T20:52:14.143Z,70.10
2022-10-11T20:55:15.955Z,70.20
2022-10-11T20:58:18.152Z,70.70
2022-10-11T21:01:21.556Z,70.90
2022-10-11T21:04:23.275Z,70.90
2022-10-11T21:07:24.923Z,70.80
